Terminal Aerodrome Forecast
Issued by NWS Shreveport, LA

Home | Current Version | Previous Version | Text Only | Print | Product List | Glossary On
Versions: 1 2 3 4 5 6 7 8 9 10 11 12 13 14 15
000
FTUS44 KSHV 050528
TAFLFK
TAF
KLFK 050528Z 0506/0606 13003KT P6SM FEW250
      TEMPO 0510/0513 5SM BR SCT005
     FM051400 VRB03KT P6SM SCT015 SCT250
     FM051600 20005KT P6SM SCT030 SCT250
     FM052000 19006KT P6SM SCT050 SCT070 SCT250
     FM060000 17004KT P6SM SCT070 SCT250=

USA.gov is the U.S. government's official web portal to all federal, state and local government web resources and services.